createdAt,value
2017-07-16T00:02:12.914Z,93.30
2017-07-16T00:04:41.288Z,93.30
2017-07-16T00:07:09.680Z,93.30
2017-07-16T00:09:38.115Z,93.40
2017-07-16T00:12:06.542Z,93.50
2017-07-16T00:14:34.934Z,93.60
2017-07-16T00:17:04.390Z,94.10
2017-07-16T00:19:32.789Z,93.80
2017-07-16T00:22:01.182Z,93.90
2017-07-16T00:24:29.586Z,94.20
2017-07-16T00:26:58.754Z,94.20
2017-07-16T00:29:27.144Z,94.10
2017-07-16T00:31:55.596Z,94.20
2017-07-16T00:34:23.999Z,94.40
2017-07-16T00:36:52.400Z,94.80
2017-07-16T00:39:20.966Z,95.20
2017-07-16T00:41:50.138Z,95.60
2017-07-16T00:44:18.514Z,95.60
2017-07-16T00:46:47.033Z,95.70
2017-07-16T00:49:16.202Z,96.30
2017-07-16T00:51:44.600Z,96.20
2017-07-16T00:54:13.032Z,96.40
2017-07-16T00:56:41.419Z,97.20
2017-07-16T00:59:09.830Z,97.90
2017-07-16T01:01:39.016Z,98.50
2017-07-16T01:04:07.412Z,98.50
2017-07-16T01:06:35.813Z,98.80
2017-07-16T01:09:03.452Z,99.20
2017-07-16T01:11:32.622Z,99.90
2017-07-16T01:14:01.009Z,99.90
2017-07-16T01:16:29.628Z,99.90
2017-07-16T01:18:58.026Z,99.90
2017-07-16T01:21:26.416Z,99.90
2017-07-16T01:23:55.005Z,99.90
2017-07-16T01:26:23.379Z,99.90
2017-07-16T01:28:51.456Z,99.90
2017-07-16T01:31:19.901Z,99.90
2017-07-16T01:33:48.292Z,99.90
2017-07-16T01:36:16.686Z,99.90
2017-07-16T01:38:45.110Z,99.90
2017-07-16T01:41:14.282Z,99.90
2017-07-16T01:43:42.674Z,99.90
2017-07-16T01:46:11.290Z,99.90
2017-07-16T01:48:39.694Z,99.90
2017-07-16T01:51:08.080Z,99.90
2017-07-16T01:53:36.485Z,99.90
2017-07-16T01:56:04.216Z,99.90
2017-07-16T01:58:32.606Z,99.90
2017-07-16T02:01:01.032Z,99.90
2017-07-16T02:03:29.426Z,99.90
2017-07-16T02:05:57.825Z,99.90
2017-07-16T02:08:27.045Z,99.90
2017-07-16T02:10:55.433Z,99.90
2017-07-16T02:13:23.807Z,99.90
2017-07-16T02:15:52.618Z,99.90
2017-07-16T02:18:21.774Z,99.90
2017-07-16T02:20:50.194Z,99.90
2017-07-16T02:23:19.723Z,99.90
2017-07-16T02:25:48.123Z,99.90
2017-07-16T02:28:16.529Z,99.90
2017-07-16T02:30:44.945Z,99.90
2017-07-16T02:33:14.096Z,99.90
2017-07-16T02:35:42.490Z,99.90
2017-07-16T02:38:10.927Z,99.90
2017-07-16T02:40:39.342Z,99.90
2017-07-16T02:43:08.546Z,99.90
2017-07-16T02:45:37.337Z,99.90
2017-07-16T02:48:05.418Z,99.90
2017-07-16T02:50:34.578Z,99.90
2017-07-16T02:53:03.220Z,99.90
2017-07-16T02:55:31.629Z,99.90
2017-07-16T02:58:00.044Z,99.60
2017-07-16T03:00:28.652Z,99.90
2017-07-16T03:02:57.041Z,99.80
2017-07-16T03:05:25.442Z,99.80
2017-07-16T03:07:54.213Z,99.60
2017-07-16T03:10:22.612Z,99.70
2017-07-16T03:12:51.006Z,99.80
2017-07-16T03:15:19.648Z,99.70
2017-07-16T03:17:48.055Z,99.50
2017-07-16T03:20:16.461Z,99.60
2017-07-16T03:22:44.916Z,99.30
2017-07-16T03:25:24.566Z,99.20
2017-07-16T03:27:53.118Z,99.20
2017-07-16T03:30:21.518Z,99.40
2017-07-16T03:32:49.906Z,99.60
2017-07-16T03:35:18.529Z,99.90
2017-07-16T03:37:47.707Z,99.90
2017-07-16T03:40:16.882Z,99.90
2017-07-16T03:42:45.439Z,99.90
2017-07-16T03:45:13.835Z,99.90
2017-07-16T03:47:42.246Z,99.90
2017-07-16T03:50:10.704Z,99.90
2017-07-16T03:52:39.102Z,99.90
2017-07-16T03:55:07.521Z,99.90
2017-07-16T03:57:36.297Z,99.90
2017-07-16T04:00:05.470Z,99.90
2017-07-16T04:02:33.866Z,99.90
2017-07-16T04:05:03.056Z,99.60
2017-07-16T04:07:31.443Z,99.60
2017-07-16T04:09:59.848Z,99.70
2017-07-16T04:12:28.089Z,99.80
2017-07-16T04:14:57.241Z,99.50
2017-07-16T04:17:25.660Z,99.50
2017-07-16T04:19:54.850Z,99.50
2017-07-16T04:22:23.236Z,99.40
2017-07-16T04:24:52.392Z,99.60
2017-07-16T04:27:20.842Z,99.60
2017-07-16T04:29:48.897Z,99.70
2017-07-16T04:32:18.038Z,99.60
2017-07-16T04:34:46.488Z,99.60
2017-07-16T04:37:14.862Z,99.60
2017-07-16T04:39:43.258Z,99.80
2017-07-16T04:42:11.925Z,99.70
2017-07-16T04:44:40.317Z,99.70
2017-07-16T04:47:08.717Z,99.90
2017-07-16T04:49:37.326Z,99.90
2017-07-16T04:52:05.705Z,99.90
2017-07-16T04:54:34.124Z,99.90
2017-07-16T04:57:02.563Z,99.80
2017-07-16T04:59:30.959Z,99.80
2017-07-16T05:02:00.117Z,99.80
2017-07-16T05:04:28.324Z,99.80
2017-07-16T05:06:56.741Z,99.90
2017-07-16T05:09:25.152Z,99.70
2017-07-16T05:11:53.671Z,99.90
2017-07-16T05:14:22.841Z,99.70
2017-07-16T05:16:51.238Z,99.70
2017-07-16T05:19:20.750Z,99.60
2017-07-16T05:21:49.142Z,99.50
2017-07-16T05:24:17.538Z,99.50
2017-07-16T05:26:46.107Z,99.80
2017-07-16T05:29:14.511Z,99.30
2017-07-16T05:31:42.907Z,99.50
2017-07-16T05:34:11.667Z,99.20
2017-07-16T05:36:40.106Z,99.30
2017-07-16T05:39:09.271Z,99.20
2017-07-16T05:41:38.234Z,99.20
2017-07-16T05:44:06.624Z,99.40
2017-07-16T05:46:35.098Z,98.90
2017-07-16T05:49:04.214Z,99.00
2017-07-16T05:51:32.618Z,99.00
2017-07-16T05:54:01.788Z,99.20
2017-07-16T05:56:31.200Z,99.20
2017-07-16T05:58:59.586Z,99.10
2017-07-16T06:01:27.993Z,99.20
2017-07-16T06:03:56.678Z,99.30
2017-07-16T06:06:25.079Z,99.60
2017-07-16T06:08:53.483Z,99.40
2017-07-16T06:11:21.902Z,99.30
2017-07-16T06:13:50.386Z,99.50
2017-07-16T06:16:18.808Z,99.80
2017-07-16T06:18:47.469Z,99.80
2017-07-16T06:21:15.873Z,99.70
2017-07-16T06:23:44.287Z,99.80
2017-07-16T06:26:12.725Z,99.60
2017-07-16T06:28:43.213Z,99.30
2017-07-16T06:31:11.620Z,99.40
2017-07-16T06:33:40.306Z,99.30
2017-07-16T06:36:08.697Z,99.40
2017-07-16T06:38:37.095Z,99.20
2017-07-16T06:41:05.850Z,99.10
2017-07-16T06:43:34.251Z,99.10
2017-07-16T06:46:02.660Z,99.10
2017-07-16T06:48:31.272Z,98.80
2017-07-16T06:50:59.667Z,98.40
2017-07-16T06:53:28.056Z,98.20
2017-07-16T06:55:56.671Z,97.80
2017-07-16T06:58:25.072Z,97.70
2017-07-16T07:00:53.112Z,97.80
2017-07-16T07:03:21.720Z,97.10
2017-07-16T07:05:50.107Z,97.50
2017-07-16T07:08:19.291Z,97.70
2017-07-16T07:10:48.928Z,97.10
2017-07-16T07:13:17.318Z,97.10
2017-07-16T07:15:45.723Z,97.00
2017-07-16T07:18:14.357Z,96.60
2017-07-16T07:20:42.557Z,96.30
2017-07-16T07:23:10.956Z,96.20
2017-07-16T07:25:39.512Z,96.60
2017-07-16T07:28:07.960Z,96.70
2017-07-16T07:30:36.375Z,97.40
2017-07-16T07:33:05.700Z,96.70
2017-07-16T07:35:34.111Z,96.80
2017-07-16T07:38:03.368Z,96.60
2017-07-16T07:40:31.864Z,96.50
2017-07-16T07:43:00.375Z,96.30
2017-07-16T07:45:28.801Z,96.20
2017-07-16T07:47:57.290Z,96.40
2017-07-16T07:50:25.709Z,96.60
2017-07-16T07:52:54.124Z,96.40
2017-07-16T07:55:22.635Z,96.20
2017-07-16T07:57:51.069Z,96.50
2017-07-16T08:00:19.456Z,96.70
2017-07-16T08:02:49.013Z,96.70
2017-07-16T08:05:17.867Z,96.70
2017-07-16T08:07:46.278Z,96.60
2017-07-16T08:10:14.759Z,96.30
2017-07-16T08:12:43.396Z,96.90
2017-07-16T08:15:11.835Z,97.10
2017-07-16T08:17:40.473Z,96.60
2017-07-16T08:20:08.869Z,97.10
2017-07-16T08:22:37.271Z,97.20
2017-07-16T08:25:05.847Z,96.40
2017-07-16T08:27:34.261Z,96.30
2017-07-16T08:30:02.687Z,96.70
2017-07-16T08:32:31.350Z,96.30
2017-07-16T08:34:59.744Z,96.70
2017-07-16T08:37:28.155Z,96.40
2017-07-16T08:39:56.592Z,96.30
2017-07-16T08:42:24.982Z,96.70
2017-07-16T08:44:53.359Z,96.40
2017-07-16T08:47:21.815Z,96.30
2017-07-16T08:49:50.249Z,96.00
2017-07-16T08:52:18.645Z,96.00
2017-07-16T08:54:47.362Z,96.20
2017-07-16T08:57:15.809Z,96.70
2017-07-16T08:59:44.228Z,96.50
2017-07-16T09:02:12.916Z,96.50
2017-07-16T09:04:41.452Z,96.60
2017-07-16T09:07:10.833Z,96.90
2017-07-16T09:09:39.290Z,96.90
2017-07-16T09:12:07.717Z,97.10
2017-07-16T09:14:36.892Z,96.90
2017-07-16T09:17:05.629Z,96.90
2017-07-16T09:19:34.030Z,97.00
2017-07-16T09:22:02.414Z,96.80
2017-07-16T09:24:31.178Z,96.10
2017-07-16T09:26:59.671Z,96.30
2017-07-16T09:29:28.091Z,96.30
2017-07-16T09:31:56.691Z,96.20
2017-07-16T09:34:25.086Z,96.30
2017-07-16T09:36:54.239Z,96.30
2017-07-16T09:39:22.674Z,96.20
2017-07-16T09:41:51.072Z,96.40
2017-07-16T09:44:19.468Z,96.30
2017-07-16T09:46:48.113Z,95.70
2017-07-16T09:49:16.503Z,95.80
2017-07-16T09:51:44.918Z,95.60
2017-07-16T09:54:14.506Z,96.00
2017-07-16T09:56:42.939Z,95.70
2017-07-16T09:59:12.110Z,95.80
2017-07-16T10:01:40.619Z,95.70
2017-07-16T10:04:09.024Z,96.00
2017-07-16T10:06:37.435Z,96.00
2017-07-16T10:09:06.063Z,95.50
2017-07-16T10:11:34.458Z,95.00
2017-07-16T10:14:02.842Z,95.00
2017-07-16T10:16:31.417Z,95.20
2017-07-16T10:18:59.921Z,95.00
2017-07-16T10:21:28.318Z,94.80
2017-07-16T10:23:57.524Z,94.70
2017-07-16T10:26:25.935Z,95.30
2017-07-16T10:28:54.486Z,95.50
2017-07-16T10:31:23.345Z,94.80
2017-07-16T10:33:51.994Z,94.50
2017-07-16T10:36:20.382Z,94.90
2017-07-16T10:38:49.084Z,95.40
2017-07-16T10:41:17.505Z,94.90
2017-07-16T10:43:45.925Z,95.20
2017-07-16T10:46:14.606Z,94.20
2017-07-16T10:48:42.999Z,95.40
2017-07-16T10:51:11.404Z,94.00
2017-07-16T10:53:39.848Z,93.40
2017-07-16T10:56:08.244Z,93.40
2017-07-16T10:58:36.647Z,93.70
2017-07-16T11:01:05.171Z,93.50
2017-07-16T11:03:33.575Z,93.60
2017-07-16T11:06:01.973Z,93.70
2017-07-16T11:08:30.619Z,94.10
2017-07-16T11:10:59.037Z,94.30
2017-07-16T11:13:27.459Z,93.10
2017-07-16T11:15:56.724Z,94.80
2017-07-16T11:18:25.134Z,94.60
2017-07-16T11:20:54.308Z,94.00
2017-07-16T11:23:22.936Z,94.00
2017-07-16T11:25:51.325Z,94.10
2017-07-16T11:28:19.732Z,94.10
2017-07-16T11:30:48.268Z,93.20
2017-07-16T11:33:16.683Z,93.40
2017-07-16T11:35:45.092Z,93.10
2017-07-16T11:38:13.706Z,93.30
2017-07-16T11:40:42.111Z,93.30
2017-07-16T11:43:10.599Z,92.90
2017-07-16T11:45:39.353Z,92.60
2017-07-16T11:48:07.759Z,92.40
2017-07-16T11:50:36.163Z,92.00
2017-07-16T11:53:04.807Z,92.30
2017-07-16T11:55:33.204Z,92.20
2017-07-16T11:58:01.608Z,92.20
2017-07-16T12:00:30.046Z,92.60
2017-07-16T12:02:58.541Z,92.50
2017-07-16T12:05:26.950Z,92.00
2017-07-16T12:07:55.498Z,92.00
2017-07-16T12:10:23.913Z,91.70
2017-07-16T12:12:52.310Z,90.50
2017-07-16T12:15:21.775Z,90.90
2017-07-16T12:17:50.169Z,90.80
2017-07-16T12:20:18.571Z,91.40
2017-07-16T12:22:47.065Z,91.40
2017-07-16T12:25:16.233Z,92.20
2017-07-16T12:27:44.637Z,92.20
2017-07-16T12:30:13.152Z,92.30
2017-07-16T12:32:41.753Z,91.90
2017-07-16T12:35:10.276Z,92.30
2017-07-16T12:37:38.718Z,92.40
2017-07-16T12:40:07.129Z,92.50
2017-07-16T12:42:36.300Z,93.20
2017-07-16T12:45:05.040Z,93.20
2017-07-16T12:47:33.431Z,93.40
2017-07-16T12:50:01.843Z,93.40
2017-07-16T12:52:30.263Z,93.50
2017-07-16T12:54:58.673Z,93.00
2017-07-16T12:57:27.063Z,93.40
2017-07-16T12:59:55.666Z,93.50
2017-07-16T13:02:24.286Z,93.10
2017-07-16T13:04:53.461Z,93.30
2017-07-16T13:07:21.910Z,93.30
2017-07-16T13:09:50.308Z,92.80
2017-07-16T13:12:18.742Z,93.10
2017-07-16T13:14:47.222Z,93.90
2017-07-16T13:17:15.678Z,93.60
2017-07-16T13:19:44.090Z,93.80
2017-07-16T13:22:12.848Z,93.40
2017-07-16T13:24:42.108Z,93.00
2017-07-16T13:27:10.525Z,93.00
2017-07-16T13:29:39.845Z,92.70
2017-07-16T13:32:08.244Z,92.70
2017-07-16T13:34:36.654Z,93.00
2017-07-16T13:37:05.367Z,93.20
2017-07-16T13:39:33.776Z,93.20
2017-07-16T13:42:02.205Z,93.00
2017-07-16T13:44:31.580Z,93.70
2017-07-16T13:47:00.005Z,93.80
2017-07-16T13:49:28.424Z,93.70
2017-07-16T13:51:56.867Z,93.80
2017-07-16T13:54:25.271Z,93.80
2017-07-16T13:56:53.666Z,94.30
2017-07-16T13:59:22.311Z,94.00
2017-07-16T14:01:50.707Z,94.20
2017-07-16T14:04:19.104Z,95.00
2017-07-16T14:06:47.816Z,93.80
2017-07-16T14:09:16.233Z,94.60
2017-07-16T14:11:44.626Z,94.40
2017-07-16T14:14:13.165Z,94.80
2017-07-16T14:16:41.569Z,94.60
2017-07-16T14:19:09.976Z,94.30
2017-07-16T14:21:38.401Z,94.60
2017-07-16T14:24:07.595Z,94.30
2017-07-16T14:26:36.016Z,94.30
2017-07-16T14:29:04.680Z,94.80
2017-07-16T14:31:33.099Z,94.10
2017-07-16T14:34:01.517Z,95.10
2017-07-16T14:36:30.048Z,94.20
2017-07-16T14:38:58.439Z,94.00
2017-07-16T14:41:26.844Z,94.40
2017-07-16T14:43:55.668Z,93.50
2017-07-16T14:46:24.071Z,93.80
2017-07-16T14:48:52.516Z,94.20
2017-07-16T14:51:21.031Z,94.40
2017-07-16T14:53:49.435Z,93.70
2017-07-16T14:56:17.837Z,93.50
2017-07-16T14:58:47.263Z,92.90
2017-07-16T15:01:15.668Z,92.90
2017-07-16T15:03:44.057Z,92.70
2017-07-16T15:06:13.377Z,92.10
2017-07-16T15:08:41.763Z,93.60
2017-07-16T15:11:10.154Z,92.50
2017-07-16T15:13:39.527Z,91.80
2017-07-16T15:16:07.954Z,91.80
2017-07-16T15:18:36.351Z,91.50
2017-07-16T15:21:04.788Z,92.20
2017-07-16T15:23:33.197Z,92.30
2017-07-16T15:26:01.574Z,92.40
2017-07-16T15:28:30.068Z,92.40
2017-07-16T15:30:58.470Z,92.60
2017-07-16T15:33:26.877Z,92.10
2017-07-16T15:35:55.305Z,92.40
2017-07-16T15:38:23.708Z,92.40
2017-07-16T15:40:52.135Z,91.50
2017-07-16T15:43:20.563Z,91.40
2017-07-16T15:45:48.967Z,90.90
2017-07-16T15:48:17.363Z,91.70
2017-07-16T15:50:45.927Z,92.10
2017-07-16T15:53:14.320Z,92.40
2017-07-16T15:55:42.890Z,92.20
2017-07-16T15:58:11.597Z,92.70
2017-07-16T16:00:39.994Z,92.30
2017-07-16T16:03:08.386Z,92.50
2017-07-16T16:05:37.124Z,92.10
2017-07-16T16:08:05.529Z,92.30
2017-07-16T16:10:33.941Z,92.00
2017-07-16T16:13:02.601Z,91.90
2017-07-16T16:15:31.035Z,92.40
2017-07-16T16:17:59.455Z,92.80
2017-07-16T16:20:27.964Z,93.00
2017-07-16T16:22:56.374Z,93.10
2017-07-16T16:25:24.762Z,93.20
2017-07-16T16:27:53.377Z,93.70
2017-07-16T16:30:21.796Z,94.10
2017-07-16T16:32:50.185Z,94.10
2017-07-16T16:35:18.618Z,94.90
2017-07-16T16:37:47.019Z,94.60
2017-07-16T16:40:15.220Z,94.70
2017-07-16T16:42:43.753Z,95.10
2017-07-16T16:45:12.133Z,94.80
2017-07-16T16:47:40.538Z,95.10
2017-07-16T16:50:09.177Z,95.00
2017-07-16T16:52:37.586Z,95.00
2017-07-16T16:55:06.528Z,94.90
2017-07-16T16:57:35.445Z,95.10
2017-07-16T17:00:03.294Z,95.10
2017-07-16T17:02:31.710Z,94.70
2017-07-16T17:05:00.616Z,94.60
2017-07-16T17:07:29.813Z,94.00
2017-07-16T17:09:58.201Z,94.00
2017-07-16T17:12:27.041Z,94.20
2017-07-16T17:14:55.453Z,94.80
2017-07-16T17:17:23.847Z,94.70
2017-07-16T17:19:52.689Z,94.40
2017-07-16T17:22:21.101Z,94.60
2017-07-16T17:24:49.479Z,94.40
2017-07-16T17:27:18.895Z,94.30
2017-07-16T17:29:47.310Z,94.30
2017-07-16T17:32:15.731Z,94.60
2017-07-16T17:34:44.374Z,93.60
2017-07-16T17:37:12.765Z,94.50
2017-07-16T17:39:41.146Z,93.80
2017-07-16T17:42:09.581Z,93.80
2017-07-16T17:44:37.976Z,93.80
2017-07-16T17:47:06.349Z,93.40
2017-07-16T17:49:34.830Z,93.80
2017-07-16T17:52:03.292Z,93.50
2017-07-16T17:54:31.683Z,93.40
2017-07-16T17:57:00.103Z,93.20
2017-07-16T17:59:28.495Z,93.40
2017-07-16T18:01:56.980Z,93.50
2017-07-16T18:04:25.632Z,93.60
2017-07-16T18:06:54.013Z,94.10
2017-07-16T18:09:22.403Z,94.10
2017-07-16T18:11:50.884Z,94.50
2017-07-16T18:14:19.310Z,94.00
2017-07-16T18:16:49.897Z,93.30
2017-07-16T18:19:18.682Z,93.20
2017-07-16T18:21:47.700Z,93.50
2017-07-16T18:24:16.092Z,93.60
2017-07-16T18:26:44.752Z,93.90
2017-07-16T18:29:13.140Z,93.50
2017-07-16T18:31:41.537Z,93.70
2017-07-16T18:34:10.294Z,93.50
2017-07-16T18:36:38.681Z,93.50
2017-07-16T18:39:07.115Z,93.10
2017-07-16T18:41:35.925Z,93.20
2017-07-16T18:44:04.354Z,93.10
2017-07-16T18:46:32.807Z,93.50
2017-07-16T18:49:01.477Z,93.60
2017-07-16T18:51:30.629Z,93.90
2017-07-16T18:53:59.018Z,93.80
2017-07-16T18:56:27.478Z,94.10
2017-07-16T18:58:55.878Z,94.40
2017-07-16T19:01:24.339Z,94.40
2017-07-16T19:03:52.965Z,94.50
2017-07-16T19:06:21.774Z,94.40
2017-07-16T19:08:50.189Z,94.70
2017-07-16T19:11:19.211Z,94.30
2017-07-16T19:13:47.620Z,94.50
2017-07-16T19:16:16.045Z,94.50
2017-07-16T19:18:44.483Z,94.70
2017-07-16T19:21:12.876Z,95.10
2017-07-16T19:23:41.289Z,95.30
2017-07-16T19:26:09.890Z,95.40
2017-07-16T19:28:38.268Z,95.60
2017-07-16T19:31:07.514Z,95.90
2017-07-16T19:33:36.066Z,95.90
2017-07-16T19:36:04.469Z,96.20
2017-07-16T19:38:32.863Z,96.60
2017-07-16T19:41:02.130Z,96.40
2017-07-16T19:43:30.535Z,96.60
2017-07-16T19:46:00.574Z,96.50
2017-07-16T19:48:28.985Z,96.50
2017-07-16T19:50:58.185Z,96.60
2017-07-16T19:53:26.591Z,96.60
2017-07-16T19:55:55.062Z,96.80
2017-07-16T19:58:23.695Z,96.90
2017-07-16T20:00:52.131Z,96.70
2017-07-16T20:03:20.814Z,96.80
2017-07-16T20:05:49.217Z,96.80
2017-07-16T20:08:17.626Z,96.90
2017-07-16T20:10:46.228Z,97.20
2017-07-16T20:13:15.389Z,97.70
2017-07-16T20:15:43.786Z,97.70
2017-07-16T20:18:12.526Z,97.90
2017-07-16T20:20:40.917Z,98.10
2017-07-16T20:23:09.320Z,98.30
2017-07-16T20:25:37.811Z,98.40
2017-07-16T20:28:06.201Z,98.50
2017-07-16T20:30:34.610Z,98.70
2017-07-16T20:33:03.057Z,98.80
2017-07-16T20:35:31.452Z,98.90
2017-07-16T20:37:59.889Z,99.10
2017-07-16T20:40:29.103Z,99.40
2017-07-16T20:42:58.272Z,99.90
2017-07-16T20:45:26.660Z,99.80
2017-07-16T20:47:55.215Z,99.90
2017-07-16T20:50:23.608Z,99.90
2017-07-16T20:52:52.012Z,99.90
2017-07-16T20:55:20.433Z,99.90
2017-07-16T20:57:48.837Z,99.90
2017-07-16T21:00:17.244Z,99.90
2017-07-16T21:02:45.751Z,99.90
2017-07-16T21:05:14.915Z,99.90
2017-07-16T21:07:43.310Z,99.90
2017-07-16T21:10:11.722Z,99.90
2017-07-16T21:12:40.117Z,99.90
2017-07-16T21:15:08.508Z,99.90
2017-07-16T21:17:36.879Z,99.90
2017-07-16T21:20:05.270Z,99.90
2017-07-16T21:22:33.659Z,99.90
2017-07-16T21:25:02.646Z,99.90
2017-07-16T21:27:31.052Z,99.90
2017-07-16T21:29:59.440Z,99.90
2017-07-16T21:32:28.848Z,99.90
2017-07-16T21:34:58.014Z,99.90
2017-07-16T21:37:26.402Z,99.90
2017-07-16T21:39:55.037Z,99.90
2017-07-16T21:42:23.441Z,99.90
2017-07-16T21:44:51.877Z,99.90
2017-07-16T21:47:20.548Z,99.90
2017-07-16T21:49:49.742Z,99.90
2017-07-16T21:52:18.920Z,99.90
2017-07-16T21:54:48.718Z,99.90
2017-07-16T21:57:17.106Z,99.90
2017-07-16T21:59:45.498Z,99.90
2017-07-16T22:02:14.069Z,99.90
2017-07-16T22:04:42.470Z,99.90
2017-07-16T22:07:11.641Z,99.90
2017-07-16T22:09:40.119Z,99.90
2017-07-16T22:12:08.524Z,99.90
2017-07-16T22:14:37.677Z,99.90
2017-07-16T22:17:06.577Z,99.90
2017-07-16T22:19:34.998Z,99.90
2017-07-16T22:22:04.151Z,99.90
2017-07-16T22:24:32.587Z,99.90
2017-07-16T22:27:00.989Z,99.90
2017-07-16T22:29:29.365Z,99.90
2017-07-16T22:31:57.904Z,99.90
2017-07-16T22:34:27.070Z,99.90
2017-07-16T22:36:55.743Z,99.90
2017-07-16T22:39:24.170Z,99.90
2017-07-16T22:41:53.322Z,99.90
2017-07-16T22:44:21.707Z,99.90
2017-07-16T22:46:50.326Z,99.90
2017-07-16T22:49:18.707Z,99.90
2017-07-16T22:51:47.096Z,99.90
2017-07-16T22:54:15.767Z,99.90
2017-07-16T22:56:44.925Z,99.90
2017-07-16T22:59:13.315Z,99.90
2017-07-16T23:01:42.030Z,99.90
2017-07-16T23:04:11.189Z,99.90
2017-07-16T23:06:39.589Z,99.90
2017-07-16T23:09:08.005Z,99.90
2017-07-16T23:11:36.373Z,99.90
2017-07-16T23:14:04.753Z,99.90
2017-07-16T23:16:33.487Z,99.90
2017-07-16T23:19:01.893Z,99.90
2017-07-16T23:21:31.060Z,99.90
2017-07-16T23:23:59.634Z,99.90
2017-07-16T23:26:28.019Z,99.90
2017-07-16T23:28:56.399Z,99.90
2017-07-16T23:31:24.805Z,99.90
2017-07-16T23:33:53.957Z,99.90
2017-07-16T23:36:22.361Z,99.90
2017-07-16T23:38:50.761Z,99.90
2017-07-16T23:41:19.930Z,99.90
2017-07-16T23:43:48.313Z,99.90
2017-07-16T23:46:16.929Z,99.90
2017-07-16T23:48:45.330Z,99.90
2017-07-16T23:51:13.749Z,99.90
2017-07-16T23:53:42.381Z,99.90
2017-07-16T23:56:10.762Z,99.90
2017-07-16T23:58:39.166Z,99.90
